South Padre Island, Texas
Current Conditions -  °F | °C
As of 9:53 AM on Friday 31 Oct 2014 (Local Time) from KPIL Reporting Station
Scattered Clouds Scattered Clouds  
Wind Chill: 77°   Ceiling: Unl
Heat Index: 79°   Visibility: 7mi
Dew Point: 71°   Wind: 5mph
Humidity: 82%   Direction: 290°WNW
Pressure: 30.13"   Gusts: NA
Location:  26.1°N, 97.17°W
Report Text: KPIL 311453Z AUTO 29004KT 7SM SCT023 25/22 A3013 RMK AO2 SLP204 T02500217 51015
Loading
Personal Weather Stations






























Interactive Weather Map
Tropical Storm Tracking
New forecast layout! Learn more

10-Day Weather Forecast

Advertisements
Track Severe Weather on mobile